createdAt,value
2019-02-23T00:03:02.298Z,21.22
2019-02-23T00:08:06.339Z,21.19
2019-02-23T00:13:10.563Z,21.11
2019-02-23T00:18:14.608Z,21.12
2019-02-23T00:23:18.686Z,21.15
2019-02-23T00:28:22.712Z,21.15
2019-02-23T00:33:26.831Z,21.08
2019-02-23T00:38:30.925Z,21.10
2019-02-23T00:43:35.202Z,21.07
2019-02-23T00:48:39.274Z,21.07
2019-02-23T00:53:43.413Z,21.09
2019-02-23T00:58:47.572Z,21.05
2019-02-23T01:03:51.692Z,21.05
2019-02-23T01:08:55.814Z,21.08
2019-02-23T01:14:00.021Z,21.06
2019-02-23T01:19:04.057Z,21.03
2019-02-23T01:24:08.228Z,21.05
2019-02-23T01:29:12.450Z,21.02
2019-02-23T01:34:16.469Z,21.01
2019-02-23T01:39:20.513Z,20.99
2019-02-23T01:44:24.563Z,20.99
2019-02-23T01:49:28.621Z,20.98
2019-02-23T01:54:32.736Z,20.98
2019-02-23T01:59:36.779Z,20.96
2019-02-23T02:04:40.887Z,20.96
2019-02-23T02:09:45.171Z,20.89
2019-02-23T02:14:49.242Z,20.86
2019-02-23T02:19:53.352Z,20.83
2019-02-23T02:24:57.375Z,20.82
2019-02-23T02:30:01.454Z,20.81
2019-02-23T02:35:07.069Z,20.81
2019-02-23T02:40:11.196Z,20.75
2019-02-23T02:45:15.289Z,20.72
2019-02-23T02:50:24.194Z,20.70
2019-02-23T02:55:25.091Z,20.66
2019-02-23T03:00:29.184Z,20.66
2019-02-23T03:05:33.292Z,20.62
2019-02-23T03:10:37.409Z,20.60
2019-02-23T03:15:41.535Z,20.57
2019-02-23T03:20:45.574Z,20.54
2019-02-23T03:25:49.597Z,20.53
2019-02-23T03:30:53.704Z,20.53
2019-02-23T03:35:57.733Z,20.49
2019-02-23T03:41:01.941Z,20.49
2019-02-23T03:46:06.045Z,20.35
2019-02-23T03:51:10.150Z,20.41
2019-02-23T03:56:14.223Z,20.40
2019-02-23T04:01:18.378Z,20.38
2019-02-23T04:06:22.433Z,20.37
2019-02-23T04:11:26.551Z,20.35
2019-02-23T04:16:30.591Z,20.34
2019-02-23T04:21:34.720Z,20.33
2019-02-23T04:26:38.753Z,20.30
2019-02-23T04:31:42.794Z,20.28
2019-02-23T04:36:46.808Z,20.27
2019-02-23T04:41:50.876Z,20.25
2019-02-23T04:46:54.989Z,20.23
2019-02-23T04:51:59.087Z,20.23
2019-02-23T04:57:03.116Z,20.22
2019-02-23T05:02:07.261Z,20.17
2019-02-23T05:07:11.289Z,20.16
2019-02-23T05:12:15.363Z,20.15
2019-02-23T05:17:19.544Z,20.13
2019-02-23T05:22:23.648Z,20.13
2019-02-23T05:27:28.154Z,20.11
2019-02-23T05:32:32.218Z,20.09
2019-02-23T05:37:36.228Z,20.09
2019-02-23T05:42:40.260Z,20.09
2019-02-23T05:47:44.297Z,20.07
2019-02-23T05:52:48.313Z,20.07
2019-02-23T05:57:52.334Z,20.06
2019-02-23T06:02:59.424Z,20.08
2019-02-23T06:08:03.451Z,20.01
2019-02-23T06:13:07.540Z,20.01
2019-02-23T06:18:11.565Z,19.97
2019-02-23T06:23:15.594Z,19.98
2019-02-23T06:28:19.620Z,19.96
2019-02-23T06:33:23.722Z,19.95
2019-02-23T06:38:27.772Z,19.94
2019-02-23T06:43:31.802Z,19.93
2019-02-23T06:48:35.839Z,19.92
2019-02-23T06:53:39.863Z,19.90
2019-02-23T06:58:43.878Z,19.90
2019-02-23T07:03:47.907Z,19.89
2019-02-23T07:08:52.037Z,19.90
2019-02-23T07:13:56.089Z,19.88
2019-02-23T07:19:00.111Z,19.88
2019-02-23T07:24:04.279Z,19.88
2019-02-23T07:29:08.394Z,19.86
2019-02-23T07:34:12.439Z,19.86
2019-02-23T07:39:16.742Z,19.85
2019-02-23T07:44:20.773Z,19.85
2019-02-23T07:49:24.800Z,19.85
2019-02-23T07:54:28.830Z,18.30
2019-02-23T07:59:32.948Z,12.00
2019-02-23T08:04:37.091Z,13.61
2019-02-23T08:09:41.195Z,18.16
2019-02-23T08:14:45.225Z,19.69
2019-02-23T08:19:49.256Z,20.43
2019-02-23T08:24:53.315Z,20.71
2019-02-23T08:29:57.348Z,20.73
2019-02-23T08:35:01.415Z,20.59
2019-02-23T08:40:06.516Z,20.59
2019-02-23T08:45:10.745Z,20.66
2019-02-23T08:50:14.861Z,20.66
2019-02-23T08:55:18.989Z,20.57
2019-02-23T09:00:23.015Z,20.57
2019-02-23T09:05:27.053Z,20.52
2019-02-23T09:10:31.068Z,20.45
2019-02-23T09:15:35.162Z,20.35
2019-02-23T09:20:39.322Z,20.35
2019-02-23T09:25:43.347Z,20.30
2019-02-23T09:30:47.380Z,20.29
2019-02-23T09:35:51.412Z,20.25
2019-02-23T09:40:55.449Z,20.27
2019-02-23T09:45:59.480Z,20.44
2019-02-23T09:51:03.603Z,20.49
2019-02-23T09:56:07.729Z,20.73
2019-02-23T10:01:11.804Z,20.67
2019-02-23T10:06:15.844Z,20.67
2019-02-23T10:11:19.924Z,20.56
2019-02-23T10:16:24.035Z,20.54
2019-02-23T10:21:28.173Z,20.54
2019-02-23T10:26:32.301Z,20.45
2019-02-23T10:31:36.393Z,20.48
2019-02-23T10:36:40.498Z,20.41
2019-02-23T10:41:44.526Z,20.44
2019-02-23T10:46:48.638Z,20.37
2019-02-23T10:51:52.779Z,20.37
2019-02-23T10:56:56.893Z,20.27
2019-02-23T11:02:01.111Z,20.31
2019-02-23T11:07:05.296Z,20.31
2019-02-23T11:12:09.486Z,20.51
2019-02-23T11:17:13.708Z,20.76
2019-02-23T11:22:17.859Z,20.78
2019-02-23T11:27:22.083Z,20.82
2019-02-23T11:32:26.140Z,20.77
2019-02-23T11:37:30.249Z,20.79
2019-02-23T11:42:34.287Z,20.73
2019-02-23T11:47:38.425Z,20.49
2019-02-23T11:52:42.552Z,20.55
2019-02-23T11:57:46.594Z,20.56
2019-02-23T12:02:52.714Z,20.40
2019-02-23T12:07:56.490Z,20.37
2019-02-23T12:13:00.548Z,20.35
2019-02-23T12:18:04.655Z,20.35
2019-02-23T12:23:08.705Z,20.38
2019-02-23T12:28:12.821Z,20.38
2019-02-23T12:33:16.883Z,20.47
2019-02-23T12:38:20.933Z,20.54
2019-02-23T12:43:25.130Z,20.57
2019-02-23T12:48:29.246Z,20.60
2019-02-23T12:53:33.324Z,20.61
2019-02-23T12:58:37.365Z,20.61
2019-02-23T13:03:41.489Z,20.59
2019-02-23T13:09:20.619Z,20.56
2019-02-23T13:14:42.953Z,20.52
2019-02-23T13:20:10.467Z,20.52
2019-02-23T13:25:37.351Z,20.68
2019-02-23T13:31:47.026Z,20.64
2019-02-23T13:37:35.811Z,20.63
2019-02-23T13:43:03.073Z,20.74
2019-02-23T13:48:32.569Z,20.75
2019-02-23T13:54:00.260Z,20.78
2019-02-23T13:59:36.663Z,20.75
2019-02-23T14:05:11.938Z,20.73
2019-02-23T14:10:24.840Z,20.73
2019-02-23T14:15:50.470Z,20.74
2019-02-23T14:21:28.431Z,20.71
2019-02-23T14:27:09.548Z,20.69
2019-02-23T14:32:51.941Z,20.69
2019-02-23T14:38:30.828Z,20.65
2019-02-23T14:44:17.238Z,20.65
2019-02-23T14:49:46.817Z,20.64
2019-02-23T14:55:29.675Z,20.64
2019-02-23T15:01:11.404Z,20.59
2019-02-23T15:06:34.457Z,20.59
2019-02-23T15:12:09.722Z,20.64
2019-02-23T15:17:25.402Z,20.64
2019-02-23T15:23:24.797Z,20.68
2019-02-23T15:28:44.150Z,20.68
2019-02-23T15:34:29.544Z,20.74
2019-02-23T15:39:56.827Z,20.80
2019-02-23T15:45:40.101Z,20.80
2019-02-23T15:50:44.124Z,20.97
2019-02-23T15:55:48.180Z,20.97
2019-02-23T16:00:52.429Z,20.92
2019-02-23T16:05:56.617Z,20.86
2019-02-23T16:11:00.713Z,20.83
2019-02-23T16:16:04.846Z,20.81
2019-02-23T16:21:08.940Z,20.82
2019-02-23T16:26:13.173Z,20.81
2019-02-23T16:31:17.424Z,20.81
2019-02-23T16:36:21.696Z,20.83
2019-02-23T16:41:25.740Z,20.83
2019-02-23T16:46:29.763Z,20.82
2019-02-23T16:51:33.890Z,20.82
2019-02-23T16:56:37.955Z,20.80
2019-02-23T17:01:41.976Z,20.58
2019-02-23T17:06:46.001Z,20.56
2019-02-23T17:11:50.064Z,20.56
2019-02-23T17:16:54.291Z,21.62
2019-02-23T17:21:58.693Z,21.95
2019-02-23T17:27:02.882Z,22.07
2019-02-23T17:32:07.106Z,22.24
2019-02-23T17:37:11.364Z,22.51
2019-02-23T17:42:27.498Z,22.51
2019-02-23T17:47:21.334Z,22.40
2019-02-23T17:52:25.737Z,22.17
2019-02-23T17:57:29.814Z,22.25
2019-02-23T18:02:34.211Z,22.30
2019-02-23T18:07:38.307Z,22.16
2019-02-23T18:12:42.487Z,22.21
2019-02-23T18:17:46.685Z,22.33
2019-02-23T18:22:50.752Z,22.33
2019-02-23T18:27:55.182Z,22.40
2019-02-23T18:32:59.430Z,22.33
2019-02-23T18:38:03.640Z,22.24
2019-02-23T18:43:07.886Z,22.11
2019-02-23T18:53:15.086Z,22.02
2019-02-23T18:58:19.316Z,22.30
2019-02-23T19:03:23.530Z,22.46
2019-02-23T19:08:27.663Z,22.46
2019-02-23T19:13:31.757Z,22.50
2019-02-23T19:18:35.873Z,22.37
2019-02-23T19:23:39.919Z,22.35
2019-02-23T19:28:44.073Z,22.20
2019-02-23T19:33:48.182Z,22.08
2019-02-23T19:38:52.352Z,22.04
2019-02-23T19:43:56.521Z,22.17
2019-02-23T19:49:01.911Z,22.42
2019-02-23T19:54:06.229Z,22.59
2019-02-23T19:59:10.309Z,22.54
2019-02-23T20:04:14.437Z,22.47
2019-02-23T20:09:18.678Z,22.47
2019-02-23T20:14:22.737Z,22.24
2019-02-23T20:19:26.803Z,22.09
2019-02-23T20:24:31.017Z,22.03
2019-02-23T20:29:37.054Z,21.99
2019-02-23T20:34:41.499Z,21.93
2019-02-23T20:39:45.669Z,21.71
2019-02-23T20:44:49.971Z,21.58
2019-02-23T20:49:54.132Z,21.49
2019-02-23T20:54:58.222Z,21.52
2019-02-23T21:00:02.382Z,21.60
2019-02-23T21:05:07.584Z,21.60
2019-02-23T21:10:11.840Z,21.49
2019-02-23T21:15:15.884Z,21.46
2019-02-23T21:20:19.927Z,21.44
2019-02-23T21:25:24.121Z,21.46
2019-02-23T21:30:28.157Z,21.45
2019-02-23T21:35:33.650Z,21.40
2019-02-23T21:40:37.814Z,21.32
2019-02-23T21:45:42.030Z,21.36
2019-02-23T21:50:46.080Z,21.34
2019-02-23T21:55:50.251Z,21.35
2019-02-23T22:00:54.414Z,21.31
2019-02-23T22:05:58.524Z,21.28
2019-02-23T22:11:02.606Z,21.27
2019-02-23T22:16:06.847Z,21.27
2019-02-23T22:21:11.062Z,21.26
2019-02-23T22:26:15.424Z,21.27
2019-02-23T22:31:19.452Z,21.24
2019-02-23T22:36:23.595Z,21.26
2019-02-23T22:41:27.730Z,21.27
2019-02-23T22:46:31.772Z,21.27
2019-02-23T22:51:35.793Z,21.29
2019-02-23T22:56:39.884Z,21.24
2019-02-23T23:01:44.158Z,21.24
2019-02-23T23:06:48.388Z,21.29
2019-02-23T23:11:52.564Z,21.28
2019-02-23T23:16:56.751Z,21.28
2019-02-23T23:22:00.959Z,21.24
2019-02-23T23:27:05.160Z,21.24
2019-02-23T23:32:09.242Z,21.24
2019-02-23T23:37:13.319Z,21.21
2019-02-23T23:42:17.634Z,21.21
2019-02-23T23:47:21.749Z,21.23
2019-02-23T23:52:25.857Z,21.19
2019-02-23T23:57:30.299Z,21.16
